sensor_id;sensor_type;location;lat;lon;timestamp;pressure;altitude;pressure_sealevel;temperature;humidity
63654;BME280;49809;47.418;19.080;2023-04-08T00:00:10;100706.16;;;3.32;100.00
63654;BME280;49809;47.418;19.080;2023-04-08T00:03:38;100709.13;;;3.29;100.00
63654;BME280;49809;47.418;19.080;2023-04-08T00:07:02;100715.34;;;3.22;100.00
63654;BME280;49809;47.418;19.080;2023-04-08T00:10:07;100715.37;;;3.28;100.00
63654;BME280;49809;47.418;19.080;2023-04-08T00:13:11;100708.34;;;3.29;100.00
63654;BME280;49809;47.418;19.080;2023-04-08T00:16:21;100711.72;;;3.23;100.00
63654;BME280;49809;47.418;19.080;2023-04-08T00:19:28;100712.53;;;3.23;100.00
63654;BME280;49809;47.418;19.080;2023-04-08T00:22:32;100710.34;;;3.27;100.00
63654;BME280;49809;47.418;19.080;2023-04-08T00:25:43;100710.97;;;3.29;100.00
63654;BME280;49809;47.418;19.080;2023-04-08T00:28:49;100710.34;;;3.27;100.00
63654;BME280;49809;47.418;19.080;2023-04-08T00:32:00;100717.53;;;3.18;100.00
63654;BME280;49809;47.418;19.080;2023-04-08T00:35:04;100719.53;;;3.16;100.00
63654;BME280;49809;47.418;19.080;2023-04-08T00:38:12;100718.53;;;3.17;100.00
63654;BME280;49809;47.418;19.080;2023-04-08T00:41:17;100713.75;;;3.27;100.00
63654;BME280;49809;47.418;19.080;2023-04-08T00:44:45;100724.41;;;3.26;100.00
63654;BME280;49809;47.418;19.080;2023-04-08T00:47:50;100714.13;;;3.18;100.00
63654;BME280;49809;47.418;19.080;2023-04-08T00:50:56;100718.72;;;3.16;100.00
63654;BME280;49809;47.418;19.080;2023-04-08T00:54:40;100721.37;;;3.22;100.00
63654;BME280;49809;47.418;19.080;2023-04-08T00:57:45;100724.97;;;3.15;100.00
63654;BME280;49809;47.418;19.080;2023-04-08T01:01:14;100716.72;;;3.18;100.00
63654;BME280;49809;47.418;19.080;2023-04-08T01:07:50;100729.22;;;3.22;100.00
63654;BME280;49809;47.418;19.080;2023-04-08T01:11:14;100724.53;;;3.11;100.00
63654;BME280;49809;47.418;19.080;2023-04-08T01:14:25;100730.62;;;3.25;100.00
63654;BME280;49809;47.418;19.080;2023-04-08T01:17:52;100721.37;;;3.22;100.00
63654;BME280;49809;47.418;19.080;2023-04-08T01:21:17;100725.81;;;3.22;100.00
63654;BME280;49809;47.418;19.080;2023-04-08T01:24:30;100719.75;;;3.21;100.00
63654;BME280;49809;47.418;19.080;2023-04-08T01:27:54;100717.97;;;3.22;100.00
63654;BME280;49809;47.418;19.080;2023-04-08T01:31:04;100721.16;;;3.17;100.00
63654;BME280;49809;47.418;19.080;2023-04-08T01:34:13;100720.34;;;3.17;100.00
63654;BME280;49809;47.418;19.080;2023-04-08T01:37:18;100722.34;;;3.15;100.00
63654;BME280;49809;47.418;19.080;2023-04-08T01:40:29;100723.72;;;3.11;100.00
63654;BME280;49809;47.418;19.080;2023-04-08T01:43:53;100728.19;;;3.17;100.00
63654;BME280;49809;47.418;19.080;2023-04-08T01:47:00;100726.34;;;3.11;100.00
63654;BME280;49809;47.418;19.080;2023-04-08T01:50:05;100718.94;;;3.14;100.00
63654;BME280;49809;47.418;19.080;2023-04-08T01:53:10;100725.19;;;3.20;100.00
63654;BME280;49809;47.418;19.080;2023-04-08T01:56:14;100720.09;;;3.12;100.00
63654;BME280;49809;47.418;19.080;2023-04-08T02:00:02;100710.06;;;3.15;100.00
63654;BME280;49809;47.418;19.080;2023-04-08T02:03:27;100724.19;;;3.21;100.00
63654;BME280;49809;47.418;19.080;2023-04-08T02:06:33;100709.28;;;3.15;100.00
63654;BME280;49809;47.418;19.080;2023-04-08T02:09:40;100719.41;;;3.24;100.00
63654;BME280;49809;47.418;19.080;2023-04-08T02:12:47;100717.31;;;3.20;100.00
63654;BME280;49809;47.418;19.080;2023-04-08T02:16:05;100707.25;;;3.17;100.00
63654;BME280;49809;47.418;19.080;2023-04-08T02:19:22;100710.06;;;3.15;100.00
63654;BME280;49809;47.418;19.080;2023-04-08T02:26:15;100716.09;;;3.16;100.00
63654;BME280;49809;47.418;19.080;2023-04-08T02:29:20;100719.75;;;3.15;100.00
63654;BME280;49809;47.418;19.080;2023-04-08T02:32:44;100713.66;;;3.08;100.00
63654;BME280;49809;47.418;19.080;2023-04-08T02:35:50;100712.41;;;3.03;100.00
63654;BME280;49809;47.418;19.080;2023-04-08T02:39:14;100710.81;;;3.02;100.00
63654;BME280;49809;47.418;19.080;2023-04-08T02:42:55;100710.03;;;3.09;100.00
63654;BME280;49809;47.418;19.080;2023-04-08T02:46:19;100714.28;;;3.10;100.00
63654;BME280;49809;47.418;19.080;2023-04-08T02:49:46;100712.50;;;3.17;100.00
63654;BME280;49809;47.418;19.080;2023-04-08T02:53:10;100698.78;;;3.08;100.00
63654;BME280;49809;47.418;19.080;2023-04-08T02:56:38;100706.84;;;3.13;100.00
63654;BME280;49809;47.418;19.080;2023-04-08T03:00:05;100704.81;;;3.15;100.00
63654;BME280;49809;47.418;19.080;2023-04-08T03:03:29;100714.53;;;3.21;100.00
63654;BME280;49809;47.418;19.080;2023-04-08T03:06:53;100714.16;;;3.24;100.00
63654;BME280;49809;47.418;19.080;2023-04-08T03:10:27;100713.72;;;3.21;100.00
63654;BME280;49809;47.418;19.080;2023-04-08T03:13:54;100716.97;;;3.23;100.00
63654;BME280;49809;47.418;19.080;2023-04-08T03:17:27;100709.28;;;3.21;100.00
63654;BME280;49809;47.418;19.080;2023-04-08T03:20:55;100715.34;;;3.22;100.00
63654;BME280;49809;47.418;19.080;2023-04-08T03:24:19;100713.00;;;3.33;100.00
63654;BME280;49809;47.418;19.080;2023-04-08T03:27:52;100718.19;;;3.27;100.00
63654;BME280;49809;47.418;19.080;2023-04-08T03:31:08;100724.41;;;3.26;100.00
63654;BME280;49809;47.418;19.080;2023-04-08T03:34:37;100711.31;;;3.19;100.00
63654;BME280;49809;47.418;19.080;2023-04-08T03:38:03;100718.59;;;3.24;100.00
63654;BME280;49809;47.418;19.080;2023-04-08T03:41:18;100723.38;;;3.20;100.00
63654;BME280;49809;47.418;19.080;2023-04-08T03:44:48;100727.59;;;3.15;100.00
63654;BME280;49809;47.418;19.080;2023-04-08T03:48:03;100720.56;;;3.22;100.00
63654;BME280;49809;47.418;19.080;2023-04-08T03:51:29;100732.81;;;3.15;100.00
63654;BME280;49809;47.418;19.080;2023-04-08T03:54:44;100731.78;;;3.16;100.00
63654;BME280;49809;47.418;19.080;2023-04-08T03:58:23;100737.06;;;3.22;100.00
63654;BME280;49809;47.418;19.080;2023-04-08T04:01:38;100742.34;;;3.29;100.00
63654;BME280;49809;47.418;19.080;2023-04-08T04:05:02;100743.13;;;3.23;100.00
63654;BME280;49809;47.418;19.080;2023-04-08T04:08:42;100744.12;;;3.22;100.00
63654;BME280;49809;47.418;19.080;2023-04-08T04:12:16;100753.41;;;3.24;100.00
63654;BME280;49809;47.418;19.080;2023-04-08T04:15:54;100752.97;;;3.21;100.00
63654;BME280;49809;47.418;19.080;2023-04-08T04:19:34;100755.81;;;3.26;100.00
63654;BME280;49809;47.418;19.080;2023-04-08T04:22:48;100757.00;;;3.23;100.00
63654;BME280;49809;47.418;19.080;2023-04-08T04:26:28;100760.44;;;3.24;100.00
63654;BME280;49809;47.418;19.080;2023-04-08T04:29:55;100765.66;;;3.24;100.00
63654;BME280;49809;47.418;19.080;2023-04-08T04:33:22;100766.44;;;3.18;100.00
63654;BME280;49809;47.418;19.080;2023-04-08T04:36:37;100758.00;;;3.22;100.00
63654;BME280;49809;47.418;19.080;2023-04-08T04:39:51;100765.19;;;3.14;100.00
63654;BME280;49809;47.418;19.080;2023-04-08T04:43:19;100766.47;;;3.24;100.00
63654;BME280;49809;47.418;19.080;2023-04-08T04:46:34;100770.91;;;3.24;100.00
63654;BME280;49809;47.418;19.080;2023-04-08T04:50:01;100762.03;;;3.25;100.00
63654;BME280;49809;47.418;19.080;2023-04-08T04:53:39;100770.91;;;3.24;100.00
63654;BME280;49809;47.418;19.080;2023-04-08T04:57:16;100767.66;;;3.22;100.00
63654;BME280;49809;47.418;19.080;2023-04-08T05:00:44;100767.72;;;3.35;100.00
63654;BME280;49809;47.418;19.080;2023-04-08T05:04:17;100764.06;;;3.23;100.00
63654;BME280;49809;47.418;19.080;2023-04-08T05:07:41;100766.47;;;3.24;100.00
63654;BME280;49809;47.418;19.080;2023-04-08T05:11:09;100772.50;;;3.25;100.00
63654;BME280;49809;47.418;19.080;2023-04-08T05:14:33;100770.47;;;3.20;100.00
63654;BME280;49809;47.418;19.080;2023-04-08T05:18:00;100781.72;;;3.21;100.00
63654;BME280;49809;47.418;19.080;2023-04-08T05:21:40;100785.22;;;3.28;100.00
63654;BME280;49809;47.418;19.080;2023-04-08T05:24:55;100787.28;;;3.39;100.00
63654;BME280;49809;47.418;19.080;2023-04-08T05:28:22;100800.16;;;3.34;100.00
63654;BME280;49809;47.418;19.080;2023-04-08T05:31:49;100795.91;;;3.33;100.00
63654;BME280;49809;47.418;19.080;2023-04-08T05:35:29;100793.53;;;3.38;100.00
63654;BME280;49809;47.418;19.080;2023-04-08T05:38:56;100802.78;;;3.34;100.00
63654;BME280;49809;47.418;19.080;2023-04-08T05:42:29;100810.37;;;3.29;100.00
63654;BME280;49809;47.418;19.080;2023-04-08T05:45:56;100813.00;;;3.29;100.00
63654;BME280;49809;47.418;19.080;2023-04-08T05:49:25;100805.19;;;3.35;100.00
63654;BME280;49809;47.418;19.080;2023-04-08T05:52:52;100812.66;;;3.38;100.00
63654;BME280;49809;47.418;19.080;2023-04-08T05:56:25;100812.38;;;3.27;100.00
63654;BME280;49809;47.418;19.080;2023-04-08T05:59:39;100816.63;;;3.28;100.00
63654;BME280;49809;47.418;19.080;2023-04-08T06:03:03;100823.59;;;3.21;100.00
63654;BME280;49809;47.418;19.080;2023-04-08T06:06:30;100825.97;;;3.16;100.00
63654;BME280;49809;47.418;19.080;2023-04-08T06:10:01;100823.97;;;3.18;100.00
63654;BME280;49809;47.418;19.080;2023-04-08T06:13:38;100821.38;;;3.18;100.00
63654;BME280;49809;47.418;19.080;2023-04-08T06:17:16;100828.06;;;3.27;100.00
63654;BME280;49809;47.418;19.080;2023-04-08T06:20:40;100826.25;;;3.27;100.00
63654;BME280;49809;47.418;19.080;2023-04-08T06:24:07;100829.31;;;3.31;100.00
63654;BME280;49809;47.418;19.080;2023-04-08T06:27:34;100824.47;;;3.34;100.00
63654;BME280;49809;47.418;19.080;2023-04-08T06:31:00;100833.03;;;3.43;100.00
63654;BME280;49809;47.418;19.080;2023-04-08T06:34:15;100839.84;;;3.44;100.00
63654;BME280;49809;47.418;19.080;2023-04-08T06:37:49;100838.69;;;3.46;100.00
63654;BME280;49809;47.418;19.080;2023-04-08T06:41:38;100841.91;;;3.48;100.00
63654;BME280;49809;47.418;19.080;2023-04-08T06:44:53;100838.72;;;3.53;100.00
63654;BME280;49809;47.418;19.080;2023-04-08T06:48:20;100844.63;;;3.68;100.00
63654;BME280;49809;47.418;19.080;2023-04-08T06:51:37;100846.03;;;3.64;100.00
63654;BME280;49809;47.418;19.080;2023-04-08T06:55:05;100851.47;;;3.63;100.00
63654;BME280;49809;47.418;19.080;2023-04-08T06:58:20;100846.84;;;3.65;100.00
63654;BME280;49809;47.418;19.080;2023-04-08T07:01:57;100860.09;;;3.63;100.00
63654;BME280;49809;47.418;19.080;2023-04-08T07:05:29;100860.50;;;3.60;100.00
63654;BME280;49809;47.418;19.080;2023-04-08T07:08:56;100860.75;;;3.65;100.00
63654;BME280;49809;47.418;19.080;2023-04-08T07:12:25;100860.31;;;3.62;100.00
63654;BME280;49809;47.418;19.080;2023-04-08T07:15:59;100863.31;;;3.59;100.00
63654;BME280;49809;47.418;19.080;2023-04-08T07:19:24;100864.97;;;3.66;100.00
63654;BME280;49809;47.418;19.080;2023-04-08T07:22:58;100870.22;;;3.66;100.00
63654;BME280;49809;47.418;19.080;2023-04-08T07:26:13;100869.41;;;3.66;100.00
63654;BME280;49809;47.418;19.080;2023-04-08T07:29:46;100877.66;;;3.63;100.00
63654;BME280;49809;47.418;19.080;2023-04-08T07:33:20;100878.31;;;3.78;100.00
63654;BME280;49809;47.418;19.080;2023-04-08T07:36:46;100882.00;;;3.83;100.00
63654;BME280;49809;47.418;19.080;2023-04-08T07:40:13;100887.38;;;3.75;100.00
63654;BME280;49809;47.418;19.080;2023-04-08T07:43:51;100897.75;;;3.90;100.00
63654;BME280;49809;47.418;19.080;2023-04-08T07:47:18;100892.91;;;3.87;100.00
63654;BME280;49809;47.418;19.080;2023-04-08T07:50:35;100901.25;;;3.69;100.00
63654;BME280;49809;47.418;19.080;2023-04-08T07:54:00;100909.31;;;3.74;100.00
63654;BME280;49809;47.418;19.080;2023-04-08T07:57:25;100900.09;;;3.78;100.00
63654;BME280;49809;47.418;19.080;2023-04-08T08:01:21;100904.97;;;3.88;100.00
63654;BME280;49809;47.418;19.080;2023-04-08T08:04:42;100902.34;;;3.88;100.00
63654;BME280;49809;47.418;19.080;2023-04-08T08:08:22;100909.88;;;3.98;100.00
63654;BME280;49809;47.418;19.080;2023-04-08T08:11:25;100907.34;;;4.11;100.00
63654;BME280;49809;47.418;19.080;2023-04-08T08:14:57;100907.56;;;4.16;100.00
63654;BME280;49809;47.418;19.080;2023-04-08T08:18:31;100905.00;;;4.29;100.00
63654;BME280;49809;47.418;19.080;2023-04-08T08:21:48;100905.81;;;4.36;100.00
63654;BME280;49809;47.418;19.080;2023-04-08T08:25:18;100909.44;;;4.28;100.00
63654;BME280;49809;47.418;19.080;2023-04-08T08:28:52;100907.00;;;4.27;100.00
63654;BME280;49809;47.418;19.080;2023-04-08T08:32:22;100915.31;;;4.37;100.00
63654;BME280;49809;47.418;19.080;2023-04-08T08:36:02;100920.63;;;4.50;100.00
63654;BME280;49809;47.418;19.080;2023-04-08T08:39:19;100916.62;;;4.67;100.00
63654;BME280;49809;47.418;19.080;2023-04-08T08:42:53;100930.78;;;4.79;100.00
63654;BME280;49809;47.418;19.080;2023-04-08T08:46:26;100923.88;;;4.65;100.00
63654;BME280;49809;47.418;19.080;2023-04-08T08:49:41;100925.91;;;4.63;100.00
63654;BME280;49809;47.418;19.080;2023-04-08T08:53:29;100927.00;;;4.41;100.00
63654;BME280;49809;47.418;19.080;2023-04-08T08:56:56;100933.47;;;4.38;100.00
63654;BME280;49809;47.418;19.080;2023-04-08T09:00:30;100936.25;;;4.30;100.00
63654;BME280;49809;47.418;19.080;2023-04-08T09:04:15;100942.28;;;4.24;100.00
63654;BME280;49809;47.418;19.080;2023-04-08T09:07:46;100935.53;;;4.50;100.00
63654;BME280;49809;47.418;19.080;2023-04-08T09:11:20;100939.22;;;4.68;100.00
63654;BME280;49809;47.418;19.080;2023-04-08T09:14:47;100948.91;;;4.74;100.00
63654;BME280;49809;47.418;19.080;2023-04-08T09:18:26;100950.09;;;4.59;100.00
63654;BME280;49809;47.418;19.080;2023-04-08T09:21:41;100951.13;;;4.71;100.00
63654;BME280;49809;47.418;19.080;2023-04-08T09:25:29;100961.84;;;4.69;100.00
63654;BME280;49809;47.418;19.080;2023-04-08T09:29:06;100960.59;;;4.65;100.00
63654;BME280;49809;47.418;19.080;2023-04-08T09:32:57;100965.09;;;4.85;100.00
63654;BME280;49809;47.418;19.080;2023-04-08T09:36:12;100968.38;;;5.00;100.00
63654;BME280;49809;47.418;19.080;2023-04-08T09:39:30;100960.47;;;4.87;100.00
63654;BME280;49809;47.418;19.080;2023-04-08T09:43:07;100967.09;;;4.69;100.00
63654;BME280;49809;47.418;19.080;2023-04-08T09:50:31;100973.41;;;4.47;100.00
63654;BME280;49809;47.418;19.080;2023-04-08T09:53:47;100963.94;;;4.40;100.00
63654;BME280;49809;47.418;19.080;2023-04-08T09:57:27;100971.34;;;4.36;100.00
63654;BME280;49809;47.418;19.080;2023-04-08T10:01:13;100976.44;;;4.44;100.00
63654;BME280;49809;47.418;19.080;2023-04-08T10:04:47;100971.97;;;4.38;100.00
63654;BME280;49809;47.418;19.080;2023-04-08T10:08:06;100973.41;;;4.47;100.00
63654;BME280;49809;47.418;19.080;2023-04-08T10:11:43;100977.91;;;4.53;100.00
63654;BME280;49809;47.418;19.080;2023-04-08T10:15:33;100986.75;;;4.52;100.00
63654;BME280;49809;47.418;19.080;2023-04-08T10:19:37;100983.44;;;4.37;100.00
63654;BME280;49809;47.418;19.080;2023-04-08T10:23:17;100985.94;;;4.45;100.00
63654;BME280;49809;47.418;19.080;2023-04-08T10:26:55;100980.69;;;4.52;100.00
63654;BME280;49809;47.418;19.080;2023-04-08T10:33:53;100981.19;;;4.68;100.00
63654;BME280;49809;47.418;19.080;2023-04-08T10:37:17;100980.81;;;4.85;100.00
63654;BME280;49809;47.418;19.080;2023-04-08T10:40:56;100981.84;;;4.90;100.00
63654;BME280;49809;47.418;19.080;2023-04-08T10:44:26;100981.03;;;4.83;100.00
63654;BME280;49809;47.418;19.080;2023-04-08T10:47:55;100989.31;;;4.87;100.00
63654;BME280;49809;47.418;19.080;2023-04-08T10:51:29;100980.41;;;4.81;100.00
63654;BME280;49809;47.418;19.080;2023-04-08T10:55:02;100982.84;;;4.82;100.00
63654;BME280;49809;47.418;19.080;2023-04-08T11:02:13;100981.19;;;4.68;100.00
63654;BME280;49809;47.418;19.080;2023-04-08T11:05:50;100988.06;;;4.69;100.00
63654;BME280;49809;47.418;19.080;2023-04-08T11:09:14;100988.84;;;4.63;100.00
63654;BME280;49809;47.418;19.080;2023-04-08T11:12:55;100986.28;;;4.90;100.00
63654;BME280;49809;47.418;19.080;2023-04-08T11:16:30;100986.94;;;5.05;100.00
63654;BME280;49809;47.418;19.080;2023-04-08T11:20:07;100986.69;;;4.87;100.00
63654;BME280;49809;47.418;19.080;2023-04-08T11:23:43;100989.87;;;4.75;100.00
63654;BME280;49809;47.418;19.080;2023-04-08T11:41:41;100989.75;;;4.97;100.00
63654;BME280;49809;47.418;19.080;2023-04-08T11:45:00;100997.22;;;5.00;100.00
63654;BME280;49809;47.418;19.080;2023-04-08T11:48:40;100999.28;;;5.11;100.00
63654;BME280;49809;47.418;19.080;2023-04-08T11:52:19;100993.41;;;5.02;100.00
63654;BME280;49809;47.418;19.080;2023-04-08T11:55:43;100991.44;;;5.24;100.00
63654;BME280;49809;47.418;19.080;2023-04-08T11:59:17;100990.44;;;5.38;100.00
63654;BME280;49809;47.418;19.080;2023-04-08T12:02:45;100990.84;;;5.48;100.00
63654;BME280;49809;47.418;19.080;2023-04-08T12:06:14;100985.41;;;5.69;100.00
63654;BME280;49809;47.418;19.080;2023-04-08T12:09:49;100979.75;;;5.59;100.00
63654;BME280;49809;47.418;19.080;2023-04-08T12:13:12;100983.00;;;5.42;100.00
63654;BME280;49809;47.418;19.080;2023-04-08T12:16:47;100980.75;;;5.39;100.00
63654;BME280;49809;47.418;19.080;2023-04-08T12:20:12;100985.00;;;5.46;100.00
63654;BME280;49809;47.418;19.080;2023-04-08T12:23:47;100981.97;;;5.49;100.00
63654;BME280;49809;47.418;19.080;2023-04-08T12:27:06;100982.41;;;5.66;100.00
63654;BME280;49809;47.418;19.080;2023-04-08T12:30:37;100978.53;;;5.82;100.00
63654;BME280;49809;47.418;19.080;2023-04-08T12:34:17;100982.78;;;5.96;100.00
63654;BME280;49809;47.418;19.080;2023-04-08T12:37:36;100972.06;;;5.78;100.00
63654;BME280;49809;47.418;19.080;2023-04-08T12:40:55;100979.75;;;5.53;100.00
63654;BME280;49809;47.418;19.080;2023-04-08T12:48:05;100991.84;;;5.21;100.00
63654;BME280;49809;47.418;19.080;2023-04-08T12:51:27;100993.41;;;5.02;100.00
63654;BME280;49809;47.418;19.080;2023-04-08T12:55:06;100983.66;;;4.90;100.00
63654;BME280;49809;47.418;19.080;2023-04-08T12:58:43;100995.22;;;5.02;100.00
63654;BME280;49809;47.418;19.080;2023-04-08T13:02:14;100996.25;;;5.14;100.00
63654;BME280;49809;47.418;19.080;2023-04-08T13:05:49;100992.69;;;5.41;100.00
63654;BME280;49809;47.418;19.080;2023-04-08T13:09:28;100980.56;;;5.66;100.00
63654;BME280;49809;47.418;19.080;2023-04-08T13:12:49;100981.34;;;5.47;100.00
63654;BME280;49809;47.418;19.080;2023-04-08T13:16:12;100980.75;;;5.39;100.00
63654;BME280;49809;47.418;19.080;2023-04-08T13:19:50;100986.19;;;5.24;100.00
63654;BME280;49809;47.418;19.080;2023-04-08T13:23:19;100969.84;;;5.48;100.00
63654;BME280;49809;47.418;19.080;2023-04-08T13:30:51;100969.03;;;5.67;100.00
63654;BME280;49809;47.418;19.080;2023-04-08T13:34:16;100970.88;;;5.60;100.00
63654;BME280;49809;47.418;19.080;2023-04-08T13:37:45;100969.66;;;5.63;100.00
63654;BME280;49809;47.418;19.080;2023-04-08T13:41:26;100970.69;;;5.55;100.00
63654;BME280;49809;47.418;19.080;2023-04-08T13:45:01;100968.25;;;5.60;100.00
63654;BME280;49809;47.418;19.080;2023-04-08T13:48:28;100963.59;;;5.56;100.00
63654;BME280;49809;47.418;19.080;2023-04-08T13:51:47;100965.81;;;5.39;100.00
63654;BME280;49809;47.418;19.080;2023-04-08T13:55:36;100963.41;;;5.64;100.00
63654;BME280;49809;47.418;19.080;2023-04-08T14:02:54;100974.91;;;5.56;100.00
63654;BME280;49809;47.418;19.080;2023-04-08T14:06:17;100966.63;;;5.53;100.00
63654;BME280;49809;47.418;19.080;2023-04-08T14:09:44;100976.09;;;5.21;100.00
63654;BME280;49809;47.418;19.080;2023-04-08T14:13:20;100976.66;;;5.10;100.00
63654;BME280;49809;47.418;19.080;2023-04-08T14:16:53;100980.72;;;5.19;100.00
63654;BME280;49809;47.418;19.080;2023-04-08T14:20:25;100977.09;;;5.33;100.00
63654;BME280;49809;47.418;19.080;2023-04-08T14:24:04;100976.53;;;5.44;100.00
63654;BME280;49809;47.418;19.080;2023-04-08T14:27:41;100976.09;;;5.47;100.00
63654;BME280;49809;47.418;19.080;2023-04-08T14:30:58;100973.50;;;5.54;100.00
63654;BME280;49809;47.418;19.080;2023-04-08T14:34:37;100974.12;;;5.56;100.00
63654;BME280;49809;47.418;19.080;2023-04-08T14:41:55;100978.94;;;5.52;100.00
63654;BME280;49809;47.418;19.080;2023-04-08T14:45:27;100977.31;;;5.38;100.00
63654;BME280;49809;47.418;19.080;2023-04-08T14:49:02;100978.91;;;5.13;100.00
63654;BME280;49809;47.418;19.080;2023-04-08T14:52:29;100987.91;;;4.91;100.00
63654;BME280;49809;47.418;19.080;2023-04-08T14:55:59;100988.09;;;4.82;100.00
63654;BME280;49809;47.418;19.080;2023-04-08T14:59:32;100982.00;;;4.75;100.00
63654;BME280;49809;47.418;19.080;2023-04-08T15:03:16;100980.78;;;4.71;100.00
63654;BME280;49809;47.418;19.080;2023-04-08T15:06:35;100985.47;;;4.82;100.00
63654;BME280;49809;47.418;19.080;2023-04-08T15:09:59;100978.63;;;4.95;100.00
63654;BME280;49809;47.418;19.080;2023-04-08T15:13:33;100980.09;;;5.10;100.00
63654;BME280;49809;47.418;19.080;2023-04-08T15:17:11;100979.28;;;5.10;100.00
63654;BME280;49809;47.418;19.080;2023-04-08T15:20:47;100977.28;;;5.12;100.00
63654;BME280;49809;47.418;19.080;2023-04-08T15:24:24;100984.75;;;5.15;100.00
63654;BME280;49809;47.418;19.080;2023-04-08T15:31:41;100986.59;;;5.28;100.00
63654;BME280;49809;47.418;19.080;2023-04-08T15:46:22;100990.06;;;5.41;100.00
63654;BME280;49809;47.418;19.080;2023-04-08T16:07:40;101002.34;;;5.34;100.00
63654;BME280;49809;47.418;19.080;2023-04-08T16:51:10;101027.34;;;4.63;100.00
63654;BME280;49809;47.418;19.080;2023-04-08T17:13:09;101037.66;;;4.30;100.00
63654;BME280;49809;47.418;19.080;2023-04-08T17:16:44;101038.25;;;4.25;100.00
63654;BME280;49809;47.418;19.080;2023-04-08T17:20:10;101048.31;;;4.28;100.00
63654;BME280;49809;47.418;19.080;2023-04-08T17:42:47;101066.09;;;4.05;100.00
63654;BME280;49809;47.418;19.080;2023-04-08T17:50:02;101073.16;;;4.05;100.00
63654;BME280;49809;47.418;19.080;2023-04-08T17:53:35;101074.53;;;4.01;100.00
63654;BME280;49809;47.418;19.080;2023-04-08T18:01:34;101077.72;;;3.96;100.00
63654;BME280;49809;47.418;19.080;2023-04-08T18:30:21;101101.97;;;3.83;100.00
63654;BME280;49809;47.418;19.080;2023-04-08T18:33:42;101104.97;;;3.80;100.00
63654;BME280;49809;47.418;19.080;2023-04-08T18:37:18;101104.53;;;3.77;100.00
63654;BME280;49809;47.418;19.080;2023-04-08T18:52:05;101123.03;;;3.75;100.00
63654;BME280;49809;47.418;19.080;2023-04-08T18:55:33;101128.91;;;3.77;100.00
63654;BME280;49809;47.418;19.080;2023-04-08T18:58:58;101126.91;;;3.79;100.00
63654;BME280;49809;47.418;19.080;2023-04-08T19:02:01;101125.53;;;3.83;100.00
63654;BME280;49809;47.418;19.080;2023-04-08T19:05:25;101129.03;;;3.90;100.00
63654;BME280;49809;47.418;19.080;2023-04-08T19:08:30;101131.66;;;3.90;100.00
63654;BME280;49809;47.418;19.080;2023-04-08T19:11:56;101131.47;;;3.92;100.00
63654;BME280;49809;47.418;19.080;2023-04-08T19:14:59;101128.91;;;3.99;100.00
63654;BME280;49809;47.418;19.080;2023-04-08T19:18:23;101128.31;;;3.97;100.00
63654;BME280;49809;47.418;19.080;2023-04-08T19:21:26;101135.53;;;3.94;100.00
63654;BME280;49809;47.418;19.080;2023-04-08T19:24:34;101133.53;;;3.97;100.00
63654;BME280;49809;47.418;19.080;2023-04-08T19:27:41;101137.16;;;3.96;100.00
63654;BME280;49809;47.418;19.080;2023-04-08T19:31:18;101135.09;;;3.91;100.00
63654;BME280;49809;47.418;19.080;2023-04-08T19:34:43;101129.66;;;3.92;100.00
63654;BME280;49809;47.418;19.080;2023-04-08T19:37:49;101137.47;;;3.86;100.00
63654;BME280;49809;47.418;19.080;2023-04-08T19:40:56;101138.63;;;3.83;100.00
63654;BME280;49809;47.418;19.080;2023-04-08T19:44:20;101138.69;;;3.90;100.00
63654;BME280;49809;47.418;19.080;2023-04-08T19:47:23;101139.00;;;3.80;100.00
63654;BME280;49809;47.418;19.080;2023-04-08T19:50:30;101143.00;;;3.76;100.00
63654;BME280;49809;47.418;19.080;2023-04-08T19:53:33;101143.62;;;3.78;100.00
63654;BME280;49809;47.418;19.080;2023-04-08T19:56:46;101139.00;;;3.80;100.00
63654;BME280;49809;47.418;19.080;2023-04-08T19:59:53;101144.63;;;3.77;100.00
63654;BME280;49809;47.418;19.080;2023-04-08T20:03:16;101146.47;;;3.83;100.00
63654;BME280;49809;47.418;19.080;2023-04-08T20:06:41;101138.75;;;3.75;100.00
63654;BME280;49809;47.418;19.080;2023-04-08T20:09:50;101157.47;;;3.72;100.00
63654;BME280;49809;47.418;19.080;2023-04-08T20:12:56;101151.97;;;3.67;100.00
63654;BME280;49809;47.418;19.080;2023-04-08T20:16:05;101145.13;;;3.66;100.00
63654;BME280;49809;47.418;19.080;2023-04-08T20:19:13;101149.28;;;3.61;100.00
63654;BME280;49809;47.418;19.080;2023-04-08T20:22:20;101153.31;;;3.63;100.00
63654;BME280;49809;47.418;19.080;2023-04-08T20:25:24;101143.88;;;3.62;100.00
63654;BME280;49809;47.418;19.080;2023-04-08T20:28:48;101148.91;;;3.64;100.00
63654;BME280;49809;47.418;19.080;2023-04-08T20:31:55;101144.47;;;3.64;100.00
63654;BME280;49809;47.418;19.080;2023-04-08T20:35:08;101151.34;;;3.65;100.00
63654;BME280;49809;47.418;19.080;2023-04-08T20:38:31;101148.34;;;3.68;100.00
63654;BME280;49809;47.418;19.080;2023-04-08T20:41:57;101147.59;;;3.74;100.00
63654;BME280;49809;47.418;19.080;2023-04-08T20:45:07;101147.16;;;3.71;100.00
63654;BME280;49809;47.418;19.080;2023-04-08T20:48:41;101148.97;;;3.70;100.00
63654;BME280;49809;47.418;19.080;2023-04-08T20:51:48;101159.19;;;3.65;100.00
63654;BME280;49809;47.418;19.080;2023-04-08T20:54:56;101165.63;;;3.63;100.00
63654;BME280;49809;47.418;19.080;2023-04-08T20:58:00;101164.16;;;3.60;100.00
63654;BME280;49809;47.418;19.080;2023-04-08T21:01:07;101157.94;;;3.61;100.00